Time;durP1;ratioP1;P1;durP2;ratioP2;P2;SDS_P1;SDS_P2;PMS_P1;PMS_P2;Temp;Humidity;BMP_temperature;BMP_pressure;BME280_temperature;BME280_humidity;BME280_pressure;Samples;Min_cycle;Max_cycle;Signal;HPM_P1;HPM_P2
2022/06/10 00:00:59;;;;;;;11.35;2.20;;;11.50;99.90;;;;;;5032664;28;20045;-91
2022/06/10 00:03:28;;;;;;;6.57;1.65;;;11.50;99.90;;;;;;5032243;28;20488;-92
2022/06/10 00:05:58;;;;;;;9.65;2.10;;;11.30;99.90;;;;;;5031478;28;20044;-91
2022/06/10 00:08:28;;;;;;;10.57;2.28;;;11.80;99.90;;;;;;5032210;28;20084;-91
2022/06/10 00:11:00;;;;;;;8.93;2.08;;;11.40;99.90;;;;;;5032532;28;20496;-91
2022/06/10 00:13:32;;;;;;;8.48;2.05;;;11.40;99.90;;;;;;5031974;28;20053;-91
2022/06/10 00:15:59;;;;;;;8.20;2.00;;;11.30;99.90;;;;;;5032386;28;20037;-91
2022/06/10 00:18:30;;;;;;;7.03;1.95;;;11.20;99.90;;;;;;5032626;28;20462;-91
2022/06/10 00:20:56;;;;;;;8.32;1.88;;;11.20;99.90;;;;;;5032730;28;20047;-91
2022/06/10 00:23:22;;;;;;;9.00;1.75;;;11.20;99.90;;;;;;5036425;28;20566;-91
2022/06/10 00:25:48;;;;;;;12.40;2.17;;;11.20;99.90;;;;;;5035688;28;20503;-91
2022/06/10 00:28:14;;;;;;;11.65;2.10;;;11.20;99.90;;;;;;5035974;28;20055;-90
2022/06/10 00:30:41;;;;;;;13.27;2.65;;;11.20;99.90;;;;;;5036562;28;20048;-91
2022/06/10 00:33:07;;;;;;;13.40;2.22;;;11.20;99.90;;;;;;5035235;28;20088;-91
2022/06/10 00:35:40;;;;;;;9.60;2.17;;;11.20;99.90;;;;;;5035620;28;20135;-91
2022/06/10 00:38:06;;;;;;;;;;;11.20;99.90;;;;;;5036195;28;20041;-91
2022/06/10 00:40:35;;;;;;;10.80;2.30;;;11.20;99.90;;;;;;5035418;28;20031;-91
2022/06/10 00:43:01;;;;;;;14.07;2.50;;;11.20;99.90;;;;;;5035916;28;20037;-91
2022/06/10 00:45:47;;;;;;;12.20;2.55;;;11.20;99.90;;;;;;5036206;28;20056;-90
2022/06/10 00:48:17;;;;;;;13.38;2.67;;;11.20;99.90;;;;;;5035064;28;20045;-90
2022/06/10 00:50:44;;;;;;;13.93;2.72;;;11.20;99.90;;;;;;5035210;28;20087;-91
2022/06/10 00:53:14;;;;;;;14.65;2.95;;;11.20;99.90;;;;;;5035968;28;20041;-91
2022/06/10 00:55:42;;;;;;;9.85;2.47;;;11.20;99.90;;;;;;5034962;28;20424;-92
2022/06/10 00:58:16;;;;;;;13.27;2.70;;;11.30;99.90;;;;;;5035786;28;20095;-91
2022/06/10 01:00:42;;;;;;;19.98;2.67;;;11.30;99.90;;;;;;5035598;28;20041;-91
2022/06/10 01:03:08;;;;;;;9.45;2.40;;;11.40;99.90;;;;;;5034999;28;20049;-91
2022/06/10 01:05:34;;;;;;;11.48;2.67;;;11.40;99.90;;;;;;5035310;28;20396;-91
2022/06/10 01:08:07;;;;;;;16.77;2.58;;;11.50;99.90;;;;;;5036003;28;20045;-91
2022/06/10 01:10:47;;;;;;;17.85;3.70;;;11.50;99.90;;;;;;5035381;28;20037;-90
2022/06/10 01:13:22;;;;;;;22.88;2.88;;;11.50;99.90;;;;;;5035026;28;20088;-91
2022/06/10 01:15:58;;;;;;;13.20;2.60;;;11.50;99.90;;;;;;5025034;28;20037;-91
2022/06/10 01:18:34;;;;;;;11.82;2.95;;;11.50;99.90;;;;;;5015527;28;20049;-91
2022/06/10 01:21:18;;;;;;;17.10;2.90;;;11.50;99.90;;;;;;5015150;28;20095;-91
2022/06/10 01:24:06;;;;;;;11.10;2.65;;;11.60;99.90;;;;;;5015663;28;20134;-90
2022/06/10 01:30:15;;;;;;;14.52;2.97;;;11.50;99.90;;;;;;5031104;28;20132;-91
2022/06/10 01:32:53;;;;;;;12.30;2.60;;;11.60;99.90;;;;;;5015632;28;20045;-92
2022/06/10 01:35:41;;;;;;;16.02;2.55;;;11.60;99.90;;;;;;5014343;28;20573;-91
2022/06/10 01:38:27;;;;;;;13.68;2.53;;;11.50;99.90;;;;;;5014805;28;20037;-91
2022/06/10 01:41:11;;;;;;;10.18;2.47;;;11.50;99.90;;;;;;5014859;28;20053;-92
2022/06/10 01:43:49;;;;;;;13.93;3.03;;;11.50;99.90;;;;;;5015290;28;20049;-92
2022/06/10 01:46:25;;;;;;;14.55;3.08;;;11.50;99.90;;;;;;5014560;28;20053;-91
2022/06/10 01:49:12;;;;;;;10.93;3.33;;;11.50;99.90;;;;;;5015610;28;20090;-91
2022/06/10 01:51:47;;;;;;;15.48;3.53;;;11.50;99.90;;;;;;5014512;28;20049;-91
2022/06/10 01:54:24;;;;;;;16.35;3.28;;;11.40;99.90;;;;;;5014411;28;20440;-91
2022/06/10 01:57:04;;;;;;;17.73;3.33;;;11.40;99.90;;;;;;5014411;28;20134;-90
2022/06/10 01:59:38;;;;;;;12.48;3.03;;;11.40;99.90;;;;;;5013825;28;20132;-91
2022/06/10 02:02:18;;;;;;;13.60;2.67;;;11.40;99.90;;;;;;5014819;28;20081;-91
2022/06/10 02:04:56;;;;;;;14.82;3.10;;;11.30;99.90;;;;;;5013340;28;20099;-91
2022/06/10 02:07:31;;;;;;;14.30;2.83;;;11.30;99.90;;;;;;5014401;28;20503;-91
2022/06/10 02:10:09;;;;;;;12.25;2.88;;;11.30;99.90;;;;;;5014362;28;20046;-91
2022/06/10 02:12:42;;;;;;;14.25;3.10;;;11.30;99.90;;;;;;5013967;28;20091;-91
2022/06/10 02:15:21;;;;;;;12.02;2.80;;;11.20;99.90;;;;;;5014542;28;20177;-91
2022/06/10 02:17:54;;;;;;;10.75;2.55;;;11.30;99.90;;;;;;5014628;28;20484;-91
2022/06/10 02:20:23;;;;;;;14.57;3.20;;;11.30;99.90;;;;;;5013209;28;20037;-90
2022/06/10 02:22:52;;;;;;;13.80;3.13;;;11.30;99.90;;;;;;5014355;28;20092;-90
2022/06/10 02:25:23;;;;;;;14.80;3.38;;;11.30;99.90;;;;;;5013849;28;20041;-90
2022/06/10 02:27:54;;;;;;;12.52;3.55;;;11.30;99.90;;;;;;5013895;28;20046;-91
2022/06/10 02:30:26;;;;;;;11.77;3.25;;;11.30;99.90;;;;;;5013962;28;20046;-91
2022/06/10 02:32:54;;;;;;;17.20;3.50;;;11.30;99.90;;;;;;5013123;28;20409;-90
2022/06/10 02:35:19;;;;;;;14.85;3.03;;;11.30;99.90;;;;;;5013582;28;20109;-91
2022/06/10 02:38:03;;;;;;;20.13;3.72;;;11.30;99.90;;;;;;5013871;28;20133;-91
2022/06/10 02:40:43;;;;;;;12.65;3.33;;;11.20;99.90;;;;;;5014201;28;20132;-90
2022/06/10 02:43:16;;;;;;;15.60;3.25;;;11.20;99.90;;;;;;5013132;28;20038;-90
2022/06/10 02:46:00;;;;;;;13.32;2.75;;;11.20;99.90;;;;;;5013928;28;20053;-91
2022/06/10 02:48:38;;;;;;;13.15;3.33;;;11.20;99.90;;;;;;5013345;28;20473;-91
2022/06/10 02:51:04;;;;;;;14.75;3.17;;;11.20;99.90;;;;;;5013285;28;20483;-91
2022/06/10 02:53:30;;;;;;;20.42;3.83;;;11.20;99.90;;;;;;5013459;28;20136;-91
2022/06/10 02:55:56;;;;;;;16.33;4.00;;;11.20;99.90;;;;;;5016875;28;20095;-92
2022/06/10 03:01:25;;;;;;;17.63;3.58;;;11.20;99.90;;;;;;5048915;28;20055;-90
2022/06/10 03:04:00;;;;;;;12.98;3.40;;;11.10;99.90;;;;;;5016581;28;20045;-91
2022/06/10 03:06:32;;;;;;;16.17;3.00;;;11.10;99.90;;;;;;5016518;28;20083;-91
2022/06/10 03:09:03;;;;;;;11.02;3.75;;;11.00;99.90;;;;;;5016114;28;20036;-90
2022/06/10 03:11:39;;;;;;;11.02;3.45;;;11.10;99.90;;;;;;5016839;28;20136;-91
2022/06/10 03:14:22;;;;;;;13.20;4.95;;;11.10;99.90;;;;;;5016550;28;20041;-90
2022/06/10 03:16:56;;;;;;;;;;;11.10;99.90;;;;;;5033954;28;20048;-90
2022/06/10 03:19:35;;;;;;;;;;;11.00;99.90;;;;;;5036305;28;20356;-90
2022/06/10 03:22:10;;;;;;;15.85;3.88;;;11.00;99.90;;;;;;5035691;28;19924;-90
2022/06/10 03:24:52;;;;;;;15.30;3.53;;;11.00;99.90;;;;;;5036029;28;20044;-91
2022/06/10 03:27:40;;;;;;;15.45;3.63;;;11.00;99.90;;;;;;5036010;28;20098;-90
2022/06/10 03:30:11;;;;;;;15.38;3.63;;;11.00;99.90;;;;;;5035115;28;20075;-91
2022/06/10 03:32:51;;;;;;;10.85;3.45;;;11.10;99.90;;;;;;5036309;28;20056;-90
2022/06/10 03:35:29;;;;;;;19.50;3.92;;;11.10;99.90;;;;;;5035180;28;20040;-90
2022/06/10 03:37:56;;;;;;;14.55;3.70;;;11.10;99.90;;;;;;5036078;28;20302;-91
2022/06/10 03:40:26;;;;;;;17.45;3.95;;;11.10;99.90;;;;;;5035702;28;20055;-92
2022/06/10 03:42:57;;;;;;;16.08;3.53;;;11.10;99.90;;;;;;5035515;28;20040;-91
2022/06/10 03:45:27;;;;;;;12.15;2.95;;;11.00;99.90;;;;;;5035886;28;20059;-91
2022/06/10 03:47:56;;;;;;;10.52;2.97;;;11.10;99.90;;;;;;5036342;28;20380;-91
2022/06/10 03:50:27;;;;;;;16.95;3.28;;;11.10;99.90;;;;;;5034894;28;20040;-91
2022/06/10 03:52:53;;;;;;;16.40;3.13;;;11.10;99.90;;;;;;5036266;28;20049;-90
2022/06/10 03:55:20;;;;;;;12.38;3.60;;;11.10;99.90;;;;;;5031849;28;20472;-91
2022/06/10 03:57:47;;;;;;;20.65;3.33;;;11.10;99.90;;;;;;5015906;28;20049;-90
2022/06/10 04:00:16;;;;;;;12.20;3.10;;;11.10;99.90;;;;;;5015574;28;20075;-90
2022/06/10 04:02:41;;;;;;;20.70;3.78;;;11.10;99.90;;;;;;5016542;28;20594;-90
2022/06/10 04:05:08;;;;;;;14.98;3.30;;;11.20;99.90;;;;;;5004970;28;20120;-90
2022/06/10 04:07:34;;;;;;;17.45;3.45;;;11.20;99.90;;;;;;4997150;28;20099;-91
2022/06/10 04:10:00;;;;;;;12.73;3.28;;;11.20;99.90;;;;;;4996753;28;20034;-90
2022/06/10 04:12:26;;;;;;;12.65;3.05;;;11.20;99.90;;;;;;4995947;28;20559;-90
2022/06/10 04:14:58;;;;;;;13.73;3.25;;;11.30;99.90;;;;;;4996496;28;20045;-90
2022/06/10 04:17:23;;;;;;;13.45;3.13;;;11.40;99.90;;;;;;4996582;28;20544;-91
2022/06/10 04:19:49;;;;;;;21.35;3.35;;;11.40;99.90;;;;;;4995706;28;20052;-88
2022/06/10 04:22:16;;;;;;;10.25;2.83;;;11.50;99.90;;;;;;4995795;28;20456;-91
2022/06/10 04:24:41;;;;;;;17.15;3.38;;;11.50;99.90;;;;;;4996439;28;20045;-91
2022/06/10 04:27:07;;;;;;;20.40;4.07;;;11.60;99.90;;;;;;4995270;28;20045;-90
2022/06/10 04:29:33;;;;;;;22.92;4.07;;;11.70;99.90;;;;;;4996464;28;20075;-90
2022/06/10 04:31:58;;;;;;;14.23;2.85;;;11.80;99.90;;;;;;4996225;28;20041;-91
2022/06/10 04:34:24;;;;;;;10.48;2.92;;;11.90;99.90;;;;;;4994860;28;20037;-90
2022/06/10 04:36:50;;;;;;;17.33;2.78;;;12.00;99.90;;;;;;4995345;28;20041;-90
2022/06/10 04:39:16;;;;;;;17.63;3.22;;;12.10;99.90;;;;;;4996744;28;20053;-89
2022/06/10 04:41:41;;;;;;;12.35;3.03;;;12.20;99.90;;;;;;5015972;28;20468;-90
2022/06/10 04:44:08;;;;;;;19.38;3.20;;;12.30;99.90;;;;;;5015857;28;20140;-90
2022/06/10 04:46:38;;;;;;;12.43;2.95;;;12.40;99.90;;;;;;5014726;28;20041;-89
2022/06/10 04:49:05;;;;;;;12.82;2.70;;;12.50;99.90;;;;;;5014824;28;20056;-90
2022/06/10 04:51:31;;;;;;;15.73;3.00;;;12.60;99.90;;;;;;5014973;28;20107;-90
2022/06/10 04:53:57;;;;;;;16.90;3.20;;;12.70;99.90;;;;;;5014784;28;20088;-90
2022/06/10 04:56:30;;;;;;;17.23;2.80;;;12.90;99.90;;;;;;5023454;28;20088;-91
2022/06/10 04:58:58;;;;;;;15.48;3.05;;;13.00;99.90;;;;;;5031799;28;20122;-90
2022/06/10 05:01:24;;;;;;;15.88;2.88;;;13.20;99.90;;;;;;5030754;28;20045;-90
2022/06/10 05:03:50;;;;;;;14.63;2.90;;;13.40;99.90;;;;;;5032063;28;20052;-89
2022/06/10 05:06:16;;;;;;;16.15;3.10;;;13.70;99.90;;;;;;5031602;28;20114;-90
2022/06/10 05:08:42;;;;;;;10.90;2.78;;;13.90;99.90;;;;;;5034748;28;20117;-91
2022/06/10 05:11:07;;;;;;;16.25;4.07;;;14.10;99.90;;;;;;5034917;28;20057;-89
2022/06/10 05:13:35;;;;;;;15.25;3.42;;;14.30;99.90;;;;;;5035061;28;20040;-91
2022/06/10 05:16:05;;;;;;;17.95;3.00;;;14.40;99.90;;;;;;5035016;28;20048;-91
2022/06/10 05:18:31;;;;;;;16.83;3.00;;;14.50;99.90;;;;;;5035531;28;20040;-91
2022/06/10 05:21:04;;;;;;;20.20;2.90;;;14.50;99.90;;;;;;5019285;28;20153;-90
2022/06/10 05:23:36;;;;;;;14.75;2.60;;;14.40;99.90;;;;;;5034152;28;20045;-92
2022/06/10 05:26:07;;;;;;;14.15;2.83;;;14.50;99.90;;;;;;5034711;28;20126;-90
2022/06/10 05:28:32;;;;;;;16.08;2.80;;;14.50;99.90;;;;;;5035131;28;20076;-90
2022/06/10 05:31:07;;;;;;;22.30;2.88;;;14.50;99.90;;;;;;5037797;28;20102;-90
2022/06/10 05:36:23;;;;;;;18.27;3.08;;;14.50;99.90;;;;;;5050761;28;20129;-91
2022/06/10 05:38:49;;;;;;;15.88;2.80;;;14.60;99.90;;;;;;5035152;28;20053;-90
2022/06/10 05:43:59;;;;;;;16.45;2.90;;;14.70;99.90;;;;;;5061417;28;20476;-90
2022/06/10 05:46:25;;;;;;;13.82;2.55;;;14.80;99.90;;;;;;5037125;28;20083;-89
2022/06/10 05:48:51;;;;;;;14.18;3.20;;;14.80;99.90;;;;;;5034902;28;20052;-90
2022/06/10 05:51:18;;;;;;;19.27;3.08;;;14.80;99.90;;;;;;5033049;28;20055;-89
2022/06/10 05:53:44;;;;;;;12.23;2.50;;;14.90;99.90;;;;;;5034959;28;20070;-90
2022/06/10 05:56:10;;;;;;;17.63;3.20;;;14.90;99.90;;;;;;5037433;28;20056;-90
2022/06/10 05:58:36;;;;;;;18.40;2.92;;;14.90;99.90;;;;;;5036949;28;20113;-90
2022/06/10 06:01:02;;;;;;;15.88;3.05;;;15.00;99.90;;;;;;5037580;28;20137;-90
2022/06/10 06:03:27;;;;;;;14.85;2.80;;;15.00;99.90;;;;;;5037157;28;20040;-90
2022/06/10 06:05:53;;;;;;;13.73;3.45;;;15.00;99.90;;;;;;5017317;28;20592;-91
2022/06/10 06:08:19;;;;;;;17.75;3.72;;;15.00;99.90;;;;;;4998112;28;20103;-90
2022/06/10 06:10:45;;;;;;;17.58;2.90;;;15.10;99.90;;;;;;4997050;28;20048;-90
2022/06/10 06:13:10;;;;;;;21.23;3.13;;;15.10;99.90;;;;;;5005899;28;20091;-90
2022/06/10 06:15:39;;;;;;;19.13;3.33;;;15.20;99.90;;;;;;5006900;28;20032;-90
2022/06/10 06:18:05;;;;;;;15.75;3.25;;;15.30;99.90;;;;;;5006035;28;20065;-89
2022/06/10 06:20:31;;;;;;;13.25;2.92;;;15.30;99.90;;;;;;5006704;28;20514;-90
2022/06/10 06:22:57;;;;;;;10.20;2.85;;;15.40;99.90;;;;;;5005984;28;20041;-90
2022/06/10 06:25:23;;;;;;;14.73;3.35;;;15.40;99.90;;;;;;5005473;28;20076;-90
2022/06/10 06:27:50;;;;;;;18.13;3.45;;;15.50;99.90;;;;;;5007065;28;20076;-90
2022/06/10 06:30:30;;;;;;;14.00;3.38;;;15.50;99.90;;;;;;5004429;28;20057;-89
2022/06/10 06:32:56;;;;;;;15.55;3.35;;;15.60;99.90;;;;;;5006098;28;20079;-90
2022/06/10 06:35:22;;;;;;;11.82;3.03;;;15.80;99.90;;;;;;4996551;28;20084;-89
2022/06/10 06:37:48;;;;;;;13.50;2.90;;;15.90;99.90;;;;;;5024837;28;20040;-89
2022/06/10 06:40:15;;;;;;;14.98;2.80;;;16.10;99.90;;;;;;5034418;28;20064;-90
2022/06/10 06:42:41;;;;;;;11.90;3.45;;;16.10;99.90;;;;;;5032549;28;20475;-88
2022/06/10 06:45:08;;;;;;;16.30;3.03;;;16.30;99.90;;;;;;5031264;28;20128;-88
2022/06/10 06:47:34;;;;;;;13.52;2.78;;;16.40;99.90;;;;;;5042297;28;20048;-89
2022/06/10 06:50:00;;;;;;;15.32;3.30;;;16.50;99.90;;;;;;5030377;28;20041;-89
2022/06/10 06:52:26;;;;;;;15.98;3.47;;;16.50;99.90;;;;;;5026717;28;20488;-89
2022/06/10 06:54:52;;;;;;;14.45;3.83;;;16.40;99.90;;;;;;5014987;28;20055;-90
2022/06/10 06:57:20;;;;;;;23.52;4.10;;;16.30;99.90;;;;;;5034897;28;20053;-89
2022/06/10 06:59:46;;;;;;;23.58;4.70;;;16.10;99.90;;;;;;5035396;28;20068;-89
2022/06/10 07:02:12;;;;;;;25.05;5.28;;;16.10;99.90;;;;;;5035445;28;20048;-89
2022/06/10 07:04:40;;;;;;;21.02;4.97;;;16.00;99.90;;;;;;5036124;28;20491;-89
2022/06/10 07:07:15;;;;;;;19.80;4.30;;;16.10;99.90;;;;;;5036662;28;20138;-89
2022/06/10 07:09:41;;;;;;;22.25;4.78;;;16.10;99.90;;;;;;5037347;28;20039;-90
2022/06/10 07:12:17;;;;;;;19.35;3.70;;;16.10;99.90;;;;;;5036000;28;20135;-89
2022/06/10 07:14:50;;;;;;;15.18;4.20;;;15.80;99.90;;;;;;5035985;28;20087;-90
2022/06/10 07:17:19;;;;;;;20.35;3.85;;;16.30;99.90;;;;;;5036081;28;20036;-89
2022/06/10 07:19:48;;;;;;;16.15;4.40;;;16.40;99.90;;;;;;5036991;28;20124;-89
2022/06/10 07:22:23;;;;;;;15.60;3.60;;;16.50;99.90;;;;;;5034259;28;20048;-87
2022/06/10 07:24:59;;;;;;;18.98;3.50;;;16.70;99.90;;;;;;5036345;28;20048;-89
2022/06/10 07:27:24;;;;;;;14.90;3.58;;;16.80;99.90;;;;;;5035068;28;20052;-88
2022/06/10 07:29:59;;;;;;;17.50;3.65;;;17.00;99.90;;;;;;5030951;28;20043;-89
2022/06/10 07:32:25;;;;;;;13.65;4.07;;;17.20;99.90;;;;;;5034482;28;20047;-88
2022/06/10 07:34:57;;;;;;;15.05;3.10;;;17.20;99.90;;;;;;5035336;28;20048;-88
2022/06/10 07:37:23;;;;;;;16.88;3.95;;;17.20;99.90;;;;;;5035914;28;20041;-88
2022/06/10 07:39:49;;;;;;;15.02;3.80;;;17.10;99.90;;;;;;5033843;28;20052;-89
2022/06/10 07:42:15;;;;;;;14.02;4.00;;;17.00;99.90;;;;;;5032883;28;20113;-89
2022/06/10 07:44:41;;;;;;;12.48;3.70;;;17.00;99.90;;;;;;5033648;28;20048;-89
2022/06/10 07:47:10;;;;;;;15.90;3.72;;;17.00;99.90;;;;;;5032443;28;20083;-90
2022/06/10 07:49:37;;;;;;;16.15;4.30;;;17.00;99.90;;;;;;5032283;28;20136;-89
2022/06/10 07:52:09;;;;;;;12.82;3.80;;;17.00;99.90;;;;;;5033291;28;20048;-89
2022/06/10 07:54:38;;;;;;;13.63;4.40;;;17.00;99.90;;;;;;5031236;28;20049;-89
2022/06/10 07:57:11;;;;;;;17.98;5.05;;;17.00;99.90;;;;;;5015310;28;20159;-89
2022/06/10 07:59:42;;;;;;;11.48;4.13;;;17.20;99.90;;;;;;5013343;28;20061;-90
2022/06/10 08:02:11;;;;;;;12.23;4.10;;;17.00;99.90;;;;;;5014110;28;20133;-89
2022/06/10 08:04:37;;;;;;;13.85;4.20;;;17.20;99.90;;;;;;5012423;28;20053;-89
2022/06/10 08:07:09;;;;;;;13.15;3.95;;;17.50;99.90;;;;;;5013488;28;20052;-90
2022/06/10 08:09:37;;;;;;;16.40;3.60;;;17.40;99.90;;;;;;5013051;28;20045;-87
2022/06/10 08:12:10;;;;;;;10.75;3.53;;;17.60;99.90;;;;;;5028683;28;20459;-88
2022/06/10 08:14:39;;;;;;;17.42;4.00;;;17.50;99.90;;;;;;5013275;28;20045;-89
2022/06/10 08:17:16;;;;;;;17.48;4.18;;;17.70;99.90;;;;;;5013554;28;20065;-89
2022/06/10 08:19:48;;;;;;;12.02;4.13;;;17.70;99.90;;;;;;5012503;28;20504;-89
2022/06/10 08:24:58;;;;;;;17.38;3.63;;;17.30;99.90;;;;;;5028404;28;20594;-89
2022/06/10 08:27:24;;;;;;;11.10;3.92;;;17.20;99.90;;;;;;5013700;28;20545;-89
2022/06/10 08:29:53;;;;;;;12.15;4.28;;;17.10;99.90;;;;;;5013108;28;20084;-89
2022/06/10 08:32:21;;;;;;;17.83;4.80;;;16.90;99.90;;;;;;5014876;28;20045;-88
2022/06/10 08:34:47;;;;;;;13.23;4.10;;;16.80;99.90;;;;;;5014758;28;20127;-89
2022/06/10 08:37:13;;;;;;;12.13;4.18;;;17.10;99.90;;;;;;5015432;28;20468;-89
2022/06/10 08:39:39;;;;;;;16.08;4.32;;;17.10;99.90;;;;;;5015058;28;20127;-90
2022/06/10 08:42:28;;;;;;;14.70;4.88;;;17.10;99.90;;;;;;5017320;28;20136;-88
2022/06/10 08:45:02;;;;;;;17.95;5.05;;;17.10;99.90;;;;;;5019490;28;20040;-89
2022/06/10 08:48:10;;;;;;;19.70;5.03;;;17.00;99.90;;;;;;5034362;28;20511;-89
2022/06/10 08:50:46;;;;;;;14.60;4.90;;;16.90;99.90;;;;;;5017961;28;20488;-88
2022/06/10 08:53:31;;;;;;;17.75;5.10;;;16.90;99.90;;;;;;5033249;28;20044;-87
2022/06/10 08:56:36;;;;;;;20.80;5.25;;;17.00;99.90;;;;;;5022223;28;20109;-87
2022/06/10 08:59:18;;;;;;;18.55;4.72;;;17.30;99.90;;;;;;5045179;28;20133;-88
2022/06/10 09:01:54;;;;;;;16.63;4.95;;;17.20;99.90;;;;;;5023575;28;20037;-87
2022/06/10 09:04:40;;;;;;;16.23;5.03;;;17.40;99.90;;;;;;5022991;28;20056;-88
2022/06/10 09:07:12;;;;;;;17.08;4.60;;;17.30;99.90;;;;;;5027835;28;20049;-86
2022/06/10 09:09:43;;;;;;;15.73;4.75;;;17.20;99.90;;;;;;5033581;28;20139;-83
2022/06/10 09:12:21;;;;;;;21.88;5.40;;;17.20;99.90;;;;;;5032682;28;20388;-83
2022/06/10 09:14:52;;;;;;;17.50;5.45;;;17.10;99.90;;;;;;5048862;28;20723;-83
2022/06/10 09:17:29;;;;;;;15.93;5.25;;;17.10;99.90;;;;;;5033409;28;20044;-83
2022/06/10 09:20:16;;;;;;;15.52;5.40;;;17.20;99.90;;;;;;5031956;28;20055;-84
2022/06/10 09:22:48;;;;;;;18.70;5.70;;;17.40;99.90;;;;;;5028228;28;20046;-84
2022/06/10 09:25:24;;;;;;;19.88;5.70;;;17.70;99.90;;;;;;5048660;28;20037;-83
2022/06/10 09:27:55;;;;;;;16.20;5.35;;;18.10;99.90;;;;;;5049468;28;20060;-83
2022/06/10 09:30:26;;;;;;;17.67;5.05;;;18.50;99.90;;;;;;5042425;28;20412;-84
2022/06/10 09:32:58;;;;;;;18.63;4.70;;;18.70;99.90;;;;;;5045787;28;20511;-84
2022/06/10 09:35:36;;;;;;;18.13;5.00;;;18.80;99.90;;;;;;5030781;28;20488;-84
2022/06/10 09:38:19;;;;;;;16.52;4.93;;;18.90;99.90;;;;;;5050328;28;20033;-84
2022/06/10 09:41:10;;;;;;;16.90;4.38;;;18.90;99.90;;;;;;5029422;28;20183;-84
2022/06/10 09:44:00;;;;;;;16.80;4.55;;;18.70;99.90;;;;;;5031842;28;20056;-84
2022/06/10 09:46:31;;;;;;;15.80;4.82;;;18.60;99.90;;;;;;5048787;28;20048;-85
2022/06/10 09:49:00;;;;;;;12.85;4.20;;;18.40;99.90;;;;;;5031503;28;20396;-84
2022/06/10 09:51:39;;;;;;;17.20;4.15;;;18.40;99.90;;;;;;5049271;28;20056;-83
2022/06/10 09:54:12;;;;;;;16.85;4.40;;;18.30;99.90;;;;;;5031786;28;20072;-83
2022/06/10 09:56:46;;;;;;;;;;;18.30;99.90;;;;;;5038352;28;20148;-84
2022/06/10 09:59:24;;;;;;;18.05;4.22;;;18.20;99.90;;;;;;5034428;28;19924;-84
2022/06/10 10:01:56;;;;;;;15.55;4.57;;;18.10;99.90;;;;;;5035815;28;20128;-83
2022/06/10 10:04:49;;;;;;;17.45;4.30;;;18.10;99.90;;;;;;5050001;28;20127;-82
2022/06/10 10:07:54;;;;;;;15.77;4.20;;;18.20;99.90;;;;;;5052434;28;20064;-83
2022/06/10 10:10:30;;;;;;;13.48;4.30;;;18.40;99.90;;;;;;5051093;28;20053;-83
2022/06/10 10:13:26;;;;;;;14.60;3.80;;;18.60;99.90;;;;;;5054933;28;20047;-83
2022/06/10 10:15:56;;;;;;;15.05;4.43;;;18.80;99.90;;;;;;5038185;28;20037;-83
2022/06/10 10:18:29;;;;;;;20.10;4.22;;;18.90;99.90;;;;;;5044421;28;20432;-82
2022/06/10 10:21:11;;;;;;;16.40;4.80;;;18.90;99.90;;;;;;5049963;28;20045;-83
2022/06/10 10:23:43;;;;;;;14.98;5.10;;;18.90;99.90;;;;;;5051882;28;20055;-83
2022/06/10 10:26:20;;;;;;;16.23;4.85;;;18.90;99.90;;;;;;5052119;28;20041;-83
2022/06/10 10:28:48;;;;;;;15.07;4.75;;;18.80;99.90;;;;;;5051385;28;20044;-83
2022/06/10 10:31:22;;;;;;;15.18;4.82;;;18.90;99.90;;;;;;5034638;28;20048;-83
2022/06/10 10:33:49;;;;;;;19.45;5.13;;;18.90;99.90;;;;;;5069425;28;20075;-83
2022/06/10 10:36:22;;;;;;;16.23;4.88;;;18.90;99.90;;;;;;5034360;28;20090;-83
2022/06/10 10:38:49;;;;;;;16.83;4.38;;;19.10;99.90;;;;;;5048732;28;20056;-82
2022/06/10 10:41:21;;;;;;;17.92;4.60;;;19.20;99.90;;;;;;5051282;28;20052;-83
2022/06/10 10:43:51;;;;;;;14.60;4.63;;;19.20;99.90;;;;;;5051971;28;20041;-83
2022/06/10 10:46:34;;;;;;;13.88;4.53;;;19.30;99.90;;;;;;5050473;28;20041;-83
2022/06/10 10:49:04;;;;;;;15.52;4.78;;;19.40;99.90;;;;;;5021847;28;20052;-83
2022/06/10 10:51:38;;;;;;;18.88;4.85;;;19.50;99.90;;;;;;5035279;28;20032;-83
2022/06/10 10:54:16;;;;;;;13.45;4.18;;;19.60;99.90;;;;;;5044670;28;20481;-83
2022/06/10 10:56:47;;;;;;;13.88;4.43;;;19.50;99.90;;;;;;5034378;28;20554;-82
2022/06/10 10:59:34;;;;;;;15.48;4.55;;;19.50;99.90;;;;;;5034139;28;20036;-83
2022/06/10 11:02:02;;;;;;;14.23;4.63;;;19.50;99.90;;;;;;5034156;28;20051;-83
2022/06/10 11:04:30;;;;;;;14.57;4.80;;;19.60;99.90;;;;;;5033477;28;20040;-83
2022/06/10 11:07:05;;;;;;;14.68;4.30;;;19.60;99.90;;;;;;5032842;28;20041;-83
2022/06/10 11:09:32;;;;;;;17.88;4.80;;;19.60;99.90;;;;;;5034733;28;20135;-85
2022/06/10 11:12:04;;;;;;;13.23;4.00;;;19.60;99.90;;;;;;5034356;28;20032;-83
2022/06/10 11:14:36;;;;;;;13.65;4.47;;;19.60;99.90;;;;;;5050980;28;20036;-83
2022/06/10 11:17:11;;;;;;;18.27;4.18;;;19.60;99.90;;;;;;5034326;28;20043;-82
2022/06/10 11:19:40;;;;;;;12.63;4.00;;;19.60;99.90;;;;;;5025594;28;20044;-83
2022/06/10 11:22:09;;;;;;;11.93;3.90;;;19.70;99.90;;;;;;5049927;28;20495;-83
2022/06/10 11:24:38;;;;;;;14.05;3.85;;;19.80;99.90;;;;;;5033435;28;20502;-83
2022/06/10 11:27:31;;;;;;;12.10;3.65;;;19.70;99.90;;;;;;5048033;28;20098;-83
2022/06/10 11:30:02;;;;;;;11.80;3.65;;;19.60;99.90;;;;;;5039403;28;20516;-82
2022/06/10 11:32:36;;;;;;;13.60;3.35;;;19.60;99.90;;;;;;5019948;28;20118;-83
2022/06/10 11:35:26;;;;;;;15.27;3.78;;;19.60;99.90;;;;;;5033015;28;20052;-83
2022/06/10 11:37:57;;;;;;;11.90;3.63;;;19.50;99.90;;;;;;5034678;28;20071;-83
2022/06/10 11:40:28;;;;;;;18.60;3.67;;;19.30;99.90;;;;;;5034088;28;20438;-83
2022/06/10 11:43:04;;;;;;;14.95;3.65;;;19.30;99.90;;;;;;5025042;28;20037;-82
2022/06/10 11:45:38;;;;;;;13.82;3.83;;;19.20;99.90;;;;;;5014711;28;20128;-83
2022/06/10 11:48:14;;;;;;;9.05;2.75;;;19.30;99.90;;;;;;5041424;28;20106;-82
2022/06/10 11:50:55;;;;;;;15.30;3.50;;;19.40;99.90;;;;;;5049524;28;20056;-83
2022/06/10 11:53:42;;;;;;;17.42;3.75;;;19.40;99.90;;;;;;5031116;28;20430;-83
2022/06/10 12:01:54;;;;;;;12.60;3.20;;;19.80;99.90;;;;;;5050604;28;20112;-82
2022/06/10 12:04:33;;;;;;;12.65;3.20;;;19.90;99.90;;;;;;5032869;28;20044;-83
2022/06/10 12:07:04;;;;;;;11.02;2.85;;;19.90;99.90;;;;;;5051123;28;20106;-83
2022/06/10 12:09:40;;;;;;;14.95;3.28;;;20.00;99.90;;;;;;5033214;28;20048;-83
2022/06/10 12:12:14;;;;;;;11.57;3.38;;;20.30;99.90;;;;;;5034229;28;20040;-82
2022/06/10 12:14:51;;;;;;;12.45;3.35;;;20.80;99.90;;;;;;5051022;28;20050;-83
2022/06/10 12:17:28;;;;;;;11.13;3.33;;;21.20;99.90;;;;;;5052552;28;20055;-83
2022/06/10 12:20:01;;;;;;;13.77;3.28;;;21.40;99.90;;;;;;5034149;28;20060;-80
2022/06/10 12:22:27;;;;;;;13.38;3.10;;;21.60;99.90;;;;;;5018179;28;20055;-81
2022/06/10 12:24:54;;;;;;;14.40;3.33;;;21.70;99.90;;;;;;5034108;28;20037;-81
2022/06/10 12:27:24;;;;;;;19.73;2.70;;;21.70;99.90;;;;;;5018035;28;20048;-81
2022/06/10 12:30:02;;;;;;;14.38;2.88;;;21.60;99.90;;;;;;5018251;28;20110;-81
2022/06/10 12:32:33;;;;;;;14.20;3.75;;;21.50;99.90;;;;;;5033545;28;20040;-81
2022/06/10 12:35:07;;;;;;;10.73;4.15;;;21.30;99.90;;;;;;5017641;28;20041;-81
2022/06/10 12:37:37;;;;;;;12.60;3.20;;;21.10;99.90;;;;;;5033809;28;20076;-81
2022/06/10 12:40:16;;;;;;;10.90;3.42;;;21.00;99.90;;;;;;5017624;28;20037;-81
2022/06/10 12:42:47;;;;;;;12.85;3.40;;;21.00;99.90;;;;;;5045357;28;20044;-81
2022/06/10 12:45:28;;;;;;;12.57;3.17;;;20.90;99.90;;;;;;5050561;28;20091;-80
2022/06/10 12:47:58;;;;;;;9.85;3.13;;;20.90;99.90;;;;;;5033942;28;20114;-81
2022/06/10 12:50:29;;;;;;;14.73;3.45;;;20.90;99.90;;;;;;5033421;28;20094;-81
2022/06/10 12:53:21;;;;;;;15.43;3.40;;;20.80;99.90;;;;;;5017358;28;20052;-80
2022/06/10 12:55:51;;;;;;;12.93;3.28;;;20.80;99.90;;;;;;5030509;28;20140;-80
2022/06/10 12:58:36;;;;;;;11.68;2.60;;;20.70;99.90;;;;;;5033941;28;20088;-81
2022/06/10 13:01:20;;;;;;;12.68;3.05;;;20.80;99.90;;;;;;5016697;28;20095;-81
2022/06/10 13:03:50;;;;;;;16.10;3.58;;;20.90;99.90;;;;;;5017569;28;20102;-81
2022/06/10 13:06:42;;;;;;;10.57;2.78;;;21.00;99.90;;;;;;5031621;28;20076;-81
2022/06/10 13:09:11;;;;;;;18.45;2.83;;;21.00;99.90;;;;;;5033597;28;20055;-80
2022/06/10 13:11:38;;;;;;;16.85;3.88;;;21.00;99.90;;;;;;5017093;28;20144;-82
2022/06/10 13:14:13;;;;;;;16.73;3.35;;;21.00;99.90;;;;;;5016386;28;20049;-81
2022/06/10 13:16:45;;;;;;;15.63;3.53;;;21.10;99.90;;;;;;5033117;28;20033;-81
2022/06/10 13:19:36;;;;;;;16.10;2.95;;;21.00;99.90;;;;;;5016478;28;20052;-81
2022/06/10 13:22:32;;;;;;;10.48;2.70;;;21.00;99.90;;;;;;5016582;28;20041;-81
2022/06/10 13:24:57;;;;;;;16.30;3.55;;;20.90;99.90;;;;;;5016965;28;20033;-81